createdAt,value
2023-07-03T00:09:14.952Z,12.68
2023-07-03T00:11:41.734Z,13.95
2023-07-03T00:14:08.328Z,15.32
2023-07-03T00:16:34.891Z,23.05
2023-07-03T00:19:01.755Z,13.68
2023-07-03T00:21:28.587Z,16.30
2023-07-03T00:23:55.522Z,17.02
2023-07-03T00:26:22.192Z,18.58
2023-07-03T00:28:49.333Z,17.23
2023-07-03T00:31:16.247Z,16.45
2023-07-03T00:33:43.024Z,16.70
2023-07-03T00:36:11.144Z,16.35
2023-07-03T00:38:38.113Z,13.48
2023-07-03T00:41:05.509Z,13.85
2023-07-03T00:43:34.289Z,23.45
2023-07-03T00:46:02.353Z,12.73
2023-07-03T00:48:32.464Z,21.10
2023-07-03T00:50:59.717Z,13.93
2023-07-03T00:53:26.592Z,14.90
2023-07-03T00:55:53.445Z,20.50
2023-07-03T00:58:20.854Z,15.45
2023-07-03T01:01:01.209Z,18.52
2023-07-03T01:03:41.785Z,21.63
2023-07-03T01:06:20.642Z,25.60
2023-07-03T01:08:56.082Z,22.90
2023-07-03T01:13:53.315Z,19.98
2023-07-03T01:16:21.286Z,17.48
2023-07-03T01:18:50.506Z,16.77
2023-07-03T01:21:23.821Z,17.35
2023-07-03T01:24:06.626Z,19.05
2023-07-03T01:26:35.649Z,18.77
2023-07-03T01:29:03.481Z,20.35
2023-07-03T01:31:32.979Z,25.98
2023-07-03T01:34:01.689Z,19.92
2023-07-03T01:36:29.676Z,20.45
2023-07-03T01:39:02.337Z,20.67
2023-07-03T01:41:31.036Z,24.25
2023-07-03T01:43:58.874Z,21.55
2023-07-03T01:46:25.878Z,22.92
2023-07-03T01:48:52.955Z,20.80
2023-07-03T01:51:36.015Z,21.10
2023-07-03T01:54:15.217Z,22.73
2023-07-03T01:56:45.403Z,27.80
2023-07-03T01:59:14.750Z,17.75
2023-07-03T02:01:53.949Z,19.70
2023-07-03T02:04:27.227Z,20.77
2023-07-03T02:06:56.499Z,20.88
2023-07-03T02:09:26.632Z,27.17
2023-07-03T02:11:57.323Z,30.02
2023-07-03T02:14:25.337Z,21.73
2023-07-03T02:16:55.997Z,25.02
2023-07-03T02:19:30.049Z,26.92
2023-07-03T02:21:57.618Z,25.35
2023-07-03T02:24:24.374Z,22.98
2023-07-03T02:26:52.293Z,29.52
2023-07-03T02:29:19.699Z,29.08
2023-07-03T02:31:47.072Z,25.23
2023-07-03T02:34:16.113Z,25.98
2023-07-03T02:36:43.463Z,20.10
2023-07-03T02:39:10.698Z,20.73
2023-07-03T02:41:37.850Z,28.10
2023-07-03T02:44:05.100Z,23.63
2023-07-03T02:46:37.200Z,26.08
2023-07-03T02:49:06.533Z,28.05
2023-07-03T02:51:35.595Z,22.50
2023-07-03T02:56:33.897Z,21.95
2023-07-03T02:59:01.323Z,25.65
2023-07-03T03:01:32.464Z,22.83
2023-07-03T03:04:00.885Z,28.90
2023-07-03T03:06:28.569Z,30.08
2023-07-03T03:08:55.482Z,30.75
2023-07-03T03:11:22.633Z,24.33
2023-07-03T03:13:53.491Z,37.78
2023-07-03T03:16:20.388Z,23.13
2023-07-03T03:18:48.668Z,23.98
2023-07-03T03:21:16.595Z,23.02
2023-07-03T03:23:46.047Z,22.52
2023-07-03T03:26:13.149Z,28.85
2023-07-03T03:28:40.068Z,30.08
2023-07-03T03:31:07.913Z,23.75
2023-07-03T03:33:39.616Z,32.60
2023-07-03T03:36:06.614Z,27.17
2023-07-03T03:38:33.335Z,26.48
2023-07-03T03:41:06.868Z,29.90
2023-07-03T03:43:38.996Z,29.92
2023-07-03T03:46:06.737Z,28.33
2023-07-03T03:48:36.668Z,33.35
2023-07-03T03:51:05.124Z,24.65
2023-07-03T03:53:34.229Z,23.80
2023-07-03T03:56:01.141Z,31.08
2023-07-03T03:58:30.530Z,30.33
2023-07-03T04:00:57.709Z,28.63
2023-07-03T04:03:24.395Z,27.60
2023-07-03T04:05:51.365Z,27.38
2023-07-03T04:08:18.330Z,28.13
2023-07-03T04:10:45.189Z,24.17
2023-07-03T04:13:12.768Z,25.70
2023-07-03T04:15:57.757Z,26.98
2023-07-03T04:18:25.352Z,25.73
2023-07-03T04:20:52.744Z,32.28
2023-07-03T04:23:19.767Z,34.83
2023-07-03T04:25:46.697Z,25.27
2023-07-03T04:28:14.356Z,25.52
2023-07-03T04:30:41.108Z,30.33
2023-07-03T04:33:07.760Z,30.65
2023-07-03T04:35:35.300Z,25.42
2023-07-03T04:38:04.552Z,22.48
2023-07-03T04:40:31.876Z,25.08
2023-07-03T04:42:58.766Z,25.08
2023-07-03T04:45:27.232Z,25.60
2023-07-03T04:47:55.121Z,30.98
2023-07-03T04:50:26.550Z,27.98
2023-07-03T04:52:56.781Z,30.35
2023-07-03T04:55:25.656Z,28.90
2023-07-03T04:57:52.588Z,19.08
2023-07-03T05:00:20.655Z,27.20
2023-07-03T05:02:49.097Z,28.00
2023-07-03T05:05:21.011Z,23.65
2023-07-03T05:07:47.946Z,25.48
2023-07-03T05:10:16.818Z,28.52
2023-07-03T05:12:46.685Z,28.20
2023-07-03T05:15:18.511Z,28.17
2023-07-03T05:17:50.430Z,26.27
2023-07-03T05:20:27.038Z,21.08
2023-07-03T05:22:55.076Z,22.02
2023-07-03T05:25:23.466Z,20.33
2023-07-03T05:27:50.322Z,23.25
2023-07-03T05:30:17.375Z,25.80
2023-07-03T05:32:44.387Z,23.80
2023-07-03T05:35:17.228Z,23.25
2023-07-03T05:37:53.217Z,18.73
2023-07-03T05:40:21.242Z,25.27
2023-07-03T05:42:48.297Z,19.88
2023-07-03T05:45:15.929Z,23.77
2023-07-03T05:47:45.381Z,28.70
2023-07-03T05:50:12.556Z,26.33
2023-07-03T05:52:41.803Z,20.85
2023-07-03T05:55:12.640Z,24.60
2023-07-03T05:57:39.837Z,26.00
2023-07-03T06:00:14.208Z,23.73
2023-07-03T06:02:47.670Z,26.40
2023-07-03T06:05:17.667Z,26.33
2023-07-03T06:07:44.855Z,21.90
2023-07-03T06:10:14.392Z,21.15
2023-07-03T06:12:42.871Z,16.38
2023-07-03T06:15:10.883Z,24.95
2023-07-03T06:17:40.036Z,25.02
2023-07-03T06:20:08.586Z,20.58
2023-07-03T06:22:35.474Z,20.17
2023-07-03T06:25:07.538Z,23.65
2023-07-03T06:27:39.380Z,27.13
2023-07-03T06:30:08.502Z,23.77
2023-07-03T06:32:43.061Z,21.70
2023-07-03T06:35:10.854Z,20.92
2023-07-03T06:37:40.568Z,19.05
2023-07-03T06:40:14.390Z,18.95
2023-07-03T06:42:53.606Z,18.17
2023-07-03T06:45:20.867Z,18.98
2023-07-03T06:47:47.730Z,20.88
2023-07-03T06:50:14.438Z,21.70
2023-07-03T06:52:42.703Z,19.98
2023-07-03T06:55:09.896Z,23.02
2023-07-03T06:57:54.415Z,21.92
2023-07-03T07:00:21.120Z,20.35
2023-07-03T07:02:47.928Z,17.10
2023-07-03T07:05:14.795Z,21.88
2023-07-03T07:07:41.470Z,15.05
2023-07-03T07:10:08.785Z,13.95
2023-07-03T07:12:35.970Z,16.15
2023-07-03T07:15:03.260Z,22.00
2023-07-03T07:17:45.839Z,21.27
2023-07-03T07:20:17.070Z,14.35
2023-07-03T07:22:44.268Z,16.02
2023-07-03T07:25:10.933Z,19.17
2023-07-03T07:27:44.292Z,13.10
2023-07-03T07:58:39.945Z,17.20
2023-07-03T08:33:36.863Z,12.75
2023-07-03T09:25:44.339Z,19.65
2023-07-03T09:36:01.130Z,14.65
2023-07-03T09:41:39.722Z,15.93
2023-07-03T09:53:48.998Z,14.38
2023-07-03T09:59:21.588Z,14.52
2023-07-03T10:13:12.861Z,14.25
2023-07-03T10:15:42.180Z,13.05
2023-07-03T10:18:21.446Z,10.82
2023-07-03T10:20:51.754Z,10.02
2023-07-03T10:23:26.451Z,14.60
2023-07-03T10:25:58.576Z,10.88
2023-07-03T10:28:30.487Z,12.95
2023-07-03T10:31:00.805Z,8.60
2023-07-03T10:33:33.754Z,11.50
2023-07-03T10:36:05.813Z,10.95
2023-07-03T10:38:56.226Z,9.80
2023-07-03T10:41:51.838Z,9.02
2023-07-03T10:44:25.319Z,6.97
2023-07-03T10:47:18.720Z,11.68
2023-07-03T10:49:47.671Z,9.30
2023-07-03T10:52:59.518Z,12.40
2023-07-03T10:55:40.743Z,10.52
2023-07-03T10:58:34.700Z,10.55
2023-07-03T11:01:13.112Z,14.38
2023-07-03T11:03:47.652Z,7.80
2023-07-03T11:06:44.732Z,11.65
2023-07-03T11:09:30.596Z,9.20
2023-07-03T11:12:06.719Z,8.90
2023-07-03T11:15:01.223Z,9.98
2023-07-03T11:23:35.728Z,11.05
2023-07-03T11:28:41.834Z,13.38
2023-07-03T11:36:51.577Z,9.05
2023-07-03T11:44:48.297Z,12.63
2023-07-03T11:47:28.668Z,7.28
2023-07-03T11:50:07.173Z,11.48
2023-07-03T11:52:40.589Z,10.13
2023-07-03T11:55:20.163Z,10.57
2023-07-03T11:58:04.443Z,7.90
2023-07-03T12:00:36.980Z,7.80
2023-07-03T12:26:50.163Z,14.93
2023-07-03T13:05:21.741Z,12.07
2023-07-03T13:07:51.796Z,9.30
2023-07-03T13:10:23.440Z,6.43
2023-07-03T13:13:27.661Z,10.40
2023-07-03T13:15:55.432Z,10.70
2023-07-03T13:25:54.954Z,8.40
2023-07-03T13:28:31.001Z,6.10
2023-07-03T13:31:17.674Z,7.65
2023-07-03T13:34:20.432Z,5.72
2023-07-03T13:37:01.608Z,8.77
2023-07-03T13:39:36.829Z,10.18
2023-07-03T13:42:11.765Z,8.70
2023-07-03T13:50:44.481Z,7.97
2023-07-03T14:08:34.455Z,5.60
2023-07-03T14:11:05.045Z,6.40
2023-07-03T14:13:35.097Z,6.80
2023-07-03T14:18:43.922Z,7.60
2023-07-03T14:21:19.896Z,8.63
2023-07-03T14:23:50.111Z,9.43
2023-07-03T14:26:20.609Z,10.95
2023-07-03T14:28:51.461Z,9.95
2023-07-03T15:06:43.240Z,8.93
2023-07-03T15:09:30.818Z,11.38
2023-07-03T15:12:17.026Z,9.07
2023-07-03T15:14:45.633Z,10.02
2023-07-03T15:20:30.813Z,8.95
2023-07-03T15:23:05.157Z,11.23
2023-07-03T15:25:33.952Z,9.60
2023-07-03T15:28:01.365Z,15.95
2023-07-03T15:30:31.892Z,14.52
2023-07-03T15:32:59.930Z,8.63
2023-07-03T15:35:29.462Z,9.90
2023-07-03T15:37:59.268Z,14.18
2023-07-03T18:09:30.229Z,11.27
2023-07-03T18:11:58.026Z,9.52
2023-07-03T18:14:33.919Z,7.45
2023-07-03T18:17:08.904Z,13.02
2023-07-03T18:19:39.586Z,10.25
2023-07-03T18:22:07.117Z,12.05
2023-07-03T18:24:38.599Z,10.27
2023-07-03T18:27:08.611Z,11.77
2023-07-03T18:29:35.664Z,13.25
2023-07-03T18:32:37.416Z,12.88
2023-07-03T18:35:19.174Z,11.45
2023-07-03T18:37:46.275Z,14.57
2023-07-03T18:40:35.620Z,8.23
2023-07-03T19:29:16.334Z,6.50
2023-07-03T19:31:44.120Z,9.50
2023-07-03T19:34:11.010Z,11.75
2023-07-03T19:36:45.642Z,9.07
2023-07-03T19:39:14.526Z,12.75
2023-07-03T19:41:44.176Z,13.70
2023-07-03T19:44:11.616Z,8.40
2023-07-03T19:46:42.424Z,15.70
2023-07-03T19:49:09.631Z,9.90
2023-07-03T19:51:40.129Z,6.97
2023-07-03T19:54:07.370Z,13.30
2023-07-03T19:56:37.076Z,11.23
2023-07-03T19:59:14.192Z,10.52
2023-07-03T20:01:42.085Z,11.63
2023-07-03T20:04:17.720Z,13.88
2023-07-03T20:06:48.326Z,8.90
2023-07-03T20:09:21.086Z,11.95
2023-07-03T20:14:33.220Z,13.88
2023-07-03T20:17:01.664Z,10.68
2023-07-03T20:20:01.881Z,11.25
2023-07-03T20:22:41.029Z,10.15
2023-07-03T21:36:49.005Z,7.50
2023-07-03T21:39:16.028Z,7.40
2023-07-03T21:41:43.204Z,9.40
2023-07-03T21:44:17.823Z,7.22
2023-07-03T21:46:47.742Z,12.80
2023-07-03T21:49:17.005Z,11.85
2023-07-03T21:51:44.382Z,10.35
2023-07-03T21:54:11.512Z,13.60
2023-07-03T21:56:39.725Z,11.43
2023-07-03T21:59:06.915Z,12.02
2023-07-03T22:01:39.467Z,11.63
2023-07-03T22:04:08.655Z,9.73
2023-07-03T22:06:36.071Z,13.63
2023-07-03T22:09:03.183Z,11.02
2023-07-03T22:11:30.643Z,18.15
2023-07-03T22:13:57.572Z,14.40
2023-07-03T22:16:24.863Z,19.92
2023-07-03T22:18:51.658Z,14.20
2023-07-03T22:21:21.949Z,14.95
2023-07-03T22:23:50.576Z,18.40
2023-07-03T22:26:17.847Z,16.85
2023-07-03T22:28:46.108Z,13.40
2023-07-03T22:31:12.834Z,16.48
2023-07-03T22:33:40.076Z,16.42
2023-07-03T22:36:10.168Z,13.57
2023-07-03T22:38:37.266Z,15.73
2023-07-03T22:41:04.663Z,17.75
2023-07-03T22:43:31.826Z,15.10
2023-07-03T22:46:06.293Z,16.38
2023-07-03T22:48:33.752Z,13.82
2023-07-03T22:51:02.341Z,17.55
2023-07-03T22:53:29.782Z,23.33
2023-07-03T22:56:02.237Z,18.30
2023-07-03T22:58:34.219Z,25.55
2023-07-03T23:01:10.273Z,14.63
2023-07-03T23:03:39.941Z,18.15
2023-07-03T23:06:07.427Z,19.35
2023-07-03T23:08:34.427Z,21.23
2023-07-03T23:11:03.224Z,15.32
2023-07-03T23:13:31.310Z,13.88
2023-07-03T23:16:07.450Z,16.42
2023-07-03T23:18:37.054Z,13.98
2023-07-03T23:21:08.168Z,16.25
2023-07-03T23:51:22.198Z,15.30
2023-07-03T23:53:50.933Z,17.52
2023-07-03T23:56:20.484Z,21.80
2023-07-03T23:58:49.876Z,21.70
